Lisa — WDE2705 — position and weather

sailwx.info

Track history (hours):
 
Tides and Currents Weather Stations Pressure Air Temp Water Temp Dewpoint Dewpoint Depression Visibility Wind Speed Wind Dir Waves Ship Positions

Lisa

Owner: Broussard Brothers, Inc., Abbeville, LA. More information available from US FCC via Universal Licensing System and Coast Guard Vessel Documentation Center.

Last reported at 2018-Jan-10 02:22 UTC. Time now 2018-Jan-19 07:24 UTC.
Position N 29°33' W 090°24'.
Warning: this ship's position is 9 days out of date.

Length 21 m.

MMSI: 367328540.

Date/timePositionNaut miles runAvg speedWind from/ knotsBaromVisibWave heightAir tempDewpointWater temp
2018-Jan-10 02:22N 29°33' W 090°24'3 8.5
2018-Jan-10 01:57N 29°33' W 090°28'4 8.7
2018-Jan-10 01:30N 29°34' W 090°32'4 7.5
2018-Jan-10 01:00N 29°35' W 090°37'4 8.1
2018-Jan-10 00:31N 29°36' W 090°41'2 4.6
2018-Jan-10 00:01N 29°35' W 090°43'2 4.1
2018-Jan-09 23:31N 29°34' W 090°45'4 8.0
2018-Jan-09 23:00N 29°32' W 090°49'5 9.3
2018-Jan-09 22:30N 29°33' W 090°54'  
2018-Jan-04 01:07N 29°51' W 091°57'1 8.5
2018-Jan-04 01:00N 29°50' W 091°58'4 8.2
2018-Jan-04 00:30N 29°49' W 092°02'4 8.7
2018-Jan-04 00:01N 29°47' W 092°07'1 2.8
2018-Jan-03 23:31N 29°48' W 092°08'1 1.5
2018-Jan-03 23:01N 29°49' W 092°08'0 0.1
2018-Jan-03 22:31N 29°49' W 092°08'0 0.2
2018-Jan-03 22:00N 29°49' W 092°08'0 0.0
2018-Jan-03 21:31N 29°49' W 092°08'0 0.2
2018-Jan-03 21:01N 29°49' W 092°08'1 2.6
2018-Jan-03 20:31N 29°48' W 092°08'2 4.4
2018-Jan-03 20:01N 29°47' W 092°10'0 0.2
2018-Jan-03 19:31N 29°47' W 092°10'1 1.1
2018-Jan-03 19:01N 29°47' W 092°10'2 4.3
2018-Jan-03 18:31N 29°48' W 092°08'1 1.8
2018-Jan-03 18:01N 29°49' W 092°08'0 0.0
2018-Jan-03 17:31N 29°49' W 092°08'2 4.4
2018-Jan-03 17:01N 29°47' W 092°09'2 3.2
2018-Jan-03 16:31N 29°47' W 092°10'0 0.3
2018-Jan-03 16:01N 29°47' W 092°10'0 0.1
2018-Jan-03 15:31N 29°47' W 092°10'0 0.0
2018-Jan-03 15:01N 29°47' W 092°10'0 0.3
2018-Jan-03 14:31N 29°47' W 092°10'0 0.5
2018-Jan-03 14:01N 29°47' W 092°10'0 0.5
2018-Jan-03 13:30N 29°47' W 092°10'1 1.5
2018-Jan-03 13:00N 29°47' W 092°11'0 0.0
2018-Jan-03 12:30N 29°47' W 092°11'0 0.0
2018-Jan-03 12:00N 29°47' W 092°11'0 0.0
2018-Jan-03 11:30N 29°47' W 092°11'0 0.0
2018-Jan-03 11:00N 29°47' W 092°11'0 0.0
2018-Jan-03 10:30N 29°47' W 092°11'0 0.0
2018-Jan-03 10:00N 29°47' W 092°11'0 0.0
2018-Jan-03 09:30N 29°47' W 092°11'0 0.0
2018-Jan-03 09:00N 29°47' W 092°11'0 0.0
2018-Jan-03 08:30N 29°47' W 092°11'0 0.0
2018-Jan-03 08:00N 29°47' W 092°11'0 0.0
2018-Jan-03 07:30N 29°47' W 092°11'0 0.0
2018-Jan-03 07:00N 29°47' W 092°11'0 0.0
2018-Jan-03 06:30N 29°47' W 092°11'0 0.0
2018-Jan-03 06:00N 29°47' W 092°11'0 0.0
2018-Jan-03 05:30N 29°47' W 092°11'0 0.0
2018-Jan-03 05:00N 29°47' W 092°11'0 0.0
2018-Jan-03 04:30N 29°47' W 092°11'0 0.0
2018-Jan-03 04:00N 29°47' W 092°11'0 0.0
2018-Jan-03 03:30N 29°47' W 092°11'0 0.0
2018-Jan-03 03:00N 29°47' W 092°11'0 0.0
2018-Jan-03 02:30N 29°47' W 092°11'0 0.0
2018-Jan-03 02:00N 29°47' W 092°11'0 0.0
2018-Jan-03 01:30N 29°47' W 092°11'0 0.0
2018-Jan-03 01:00N 29°47' W 092°11'0 0.0
2018-Jan-03 00:30N 29°47' W 092°11'3 5.6
2018-Jan-03 00:00N 29°47' W 092°08'4 8.9
2018-Jan-02 23:30N 29°49' W 092°03'3 6.0
2018-Jan-02 22:57N 29°50' W 091°59'0 0.0
2018-Jan-02 22:18N 29°50' W 091°59'0 0.0
2018-Jan-02 22:00N 29°50' W 091°59'0 0.0
2018-Jan-02 21:30N 29°50' W 091°59'0 0.0
2018-Jan-02 21:00N 29°50' W 091°59'0 0.5
2018-Jan-02 20:28N 29°50' W 091°59'0 0.1
2018-Jan-02 20:00N 29°50' W 091°59'0 0.0
2018-Jan-02 19:30N 29°50' W 091°59'2 3.5
2018-Jan-02 19:00N 29°49' W 092°01'4 8.4
2018-Jan-02 18:30N 29°48' W 092°06'2 4.6
2018-Jan-02 18:01N 29°48' W 092°08'1 2.6
2018-Jan-02 17:30N 29°49' W 092°08'0 0.0
2018-Jan-02 17:00N 29°49' W 092°08'0 0.2
2018-Jan-02 16:30N 29°49' W 092°08'0 0.0
2018-Jan-02 16:00N 29°49' W 092°08'0 0.0
2018-Jan-02 15:30N 29°49' W 092°08'0 0.0
2018-Jan-02 15:00N 29°49' W 092°08'0 0.2
2018-Jan-02 14:31N 29°49' W 092°08'0 0.2
2018-Jan-02 14:00N 29°49' W 092°08'0 0.3
2018-Jan-02 13:30N 29°49' W 092°08'0 0.1
2018-Jan-02 13:01N 29°49' W 092°08'1 2.8
2018-Jan-02 12:30N 29°48' W 092°08'2 4.4
2018-Jan-02 12:00N 29°47' W 092°10'0 0.0
2018-Jan-02 11:30N 29°47' W 092°10'1 0.0
2017-Dec-31 19:49N 29°47' W 092°11'0 0.3
2017-Dec-31 19:31N 29°47' W 092°11'0 0.0
2017-Dec-31 19:01N 29°47' W 092°11'0 0.0
2017-Dec-31 18:30N 29°47' W 092°11'0 0.0
2017-Dec-31 18:01N 29°47' W 092°11'0 0.0
2017-Dec-31 17:31N 29°47' W 092°11'0 0.0
2017-Dec-31 17:00N 29°47' W 092°11'0 0.0
2017-Dec-31 16:30N 29°47' W 092°11'0 0.0
2017-Dec-31 16:00N 29°47' W 092°11'0 0.0
2017-Dec-31 15:30N 29°47' W 092°11'0 0.0
2017-Dec-31 15:01N 29°47' W 092°11'0 0.0
2017-Dec-31 14:31N 29°47' W 092°11'0 0.0
2017-Dec-31 14:00N 29°47' W 092°11'0 0.0
2017-Dec-31 13:30N 29°47' W 092°11'0 0.0
2017-Dec-31 13:01N 29°47' W 092°11'0 0.0
2017-Dec-31 12:30N 29°47' W 092°11'0 0.0
2017-Dec-31 12:01N 29°47' W 092°11'0 0.0
2017-Dec-31 11:31N 29°47' W 092°11'  
Track history (hours):
 
Tides and Currents Weather Stations Pressure Air Temp Water Temp Dewpoint Dewpoint Depression Visibility Wind Speed Wind Dir Waves Ship Positions

Lisa

Owner: Broussard Brothers, Inc., Abbeville, LA. More information available from US FCC via Universal Licensing System and Coast Guard Vessel Documentation Center.

Last reported at 2018-Jan-10 02:22 UTC. Time now 2018-Jan-19 07:24 UTC.
Position N 29°33' W 090°24'.
Warning: this ship's position is 9 days out of date.

Length 21 m.

MMSI: 367328540.

Date/timePositionNaut miles runAvg speedWind from/ knotsBaromVisibWave heightAir tempDewpointWater temp
2018-Jan-10 02:22N 29°33' W 090°24'3 8.5
2018-Jan-10 01:57N 29°33' W 090°28'4 8.7
2018-Jan-10 01:30N 29°34' W 090°32'4 7.5
2018-Jan-10 01:00N 29°35' W 090°37'4 8.1
2018-Jan-10 00:31N 29°36' W 090°41'2 4.6
2018-Jan-10 00:01N 29°35' W 090°43'2 4.1
2018-Jan-09 23:31N 29°34' W 090°45'4 8.0
2018-Jan-09 23:00N 29°32' W 090°49'5 9.3
2018-Jan-09 22:30N 29°33' W 090°54'  
2018-Jan-04 01:07N 29°51' W 091°57'1 8.5
2018-Jan-04 01:00N 29°50' W 091°58'4 8.2
2018-Jan-04 00:30N 29°49' W 092°02'4 8.7
2018-Jan-04 00:01N 29°47' W 092°07'1 2.8
2018-Jan-03 23:31N 29°48' W 092°08'1 1.5
2018-Jan-03 23:01N 29°49' W 092°08'0 0.1
2018-Jan-03 22:31N 29°49' W 092°08'0 0.2
2018-Jan-03 22:00N 29°49' W 092°08'0 0.0
2018-Jan-03 21:31N 29°49' W 092°08'0 0.2
2018-Jan-03 21:01N 29°49' W 092°08'1 2.6
2018-Jan-03 20:31N 29°48' W 092°08'2 4.4
2018-Jan-03 20:01N 29°47' W 092°10'0 0.2
2018-Jan-03 19:31N 29°47' W 092°10'1 1.1
2018-Jan-03 19:01N 29°47' W 092°10'2 4.3
2018-Jan-03 18:31N 29°48' W 092°08'1 1.8
2018-Jan-03 18:01N 29°49' W 092°08'0 0.0
2018-Jan-03 17:31N 29°49' W 092°08'2 4.4
2018-Jan-03 17:01N 29°47' W 092°09'2 3.2
2018-Jan-03 16:31N 29°47' W 092°10'0 0.3
2018-Jan-03 16:01N 29°47' W 092°10'0 0.1
2018-Jan-03 15:31N 29°47' W 092°10'0 0.0
2018-Jan-03 15:01N 29°47' W 092°10'0 0.3
2018-Jan-03 14:31N 29°47' W 092°10'0 0.5
2018-Jan-03 14:01N 29°47' W 092°10'0 0.5
2018-Jan-03 13:30N 29°47' W 092°10'1 1.5
2018-Jan-03 13:00N 29°47' W 092°11'0 0.0
2018-Jan-03 12:30N 29°47' W 092°11'0 0.0
2018-Jan-03 12:00N 29°47' W 092°11'0 0.0
2018-Jan-03 11:30N 29°47' W 092°11'0 0.0
2018-Jan-03 11:00N 29°47' W 092°11'0 0.0
2018-Jan-03 10:30N 29°47' W 092°11'0 0.0
2018-Jan-03 10:00N 29°47' W 092°11'0 0.0
2018-Jan-03 09:30N 29°47' W 092°11'0 0.0
2018-Jan-03 09:00N 29°47' W 092°11'0 0.0
2018-Jan-03 08:30N 29°47' W 092°11'0 0.0
2018-Jan-03 08:00N 29°47' W 092°11'0 0.0
2018-Jan-03 07:30N 29°47' W 092°11'0 0.0
2018-Jan-03 07:00N 29°47' W 092°11'0 0.0
2018-Jan-03 06:30N 29°47' W 092°11'0 0.0
2018-Jan-03 06:00N 29°47' W 092°11'0 0.0
2018-Jan-03 05:30N 29°47' W 092°11'0 0.0
2018-Jan-03 05:00N 29°47' W 092°11'0 0.0
2018-Jan-03 04:30N 29°47' W 092°11'0 0.0
2018-Jan-03 04:00N 29°47' W 092°11'0 0.0
2018-Jan-03 03:30N 29°47' W 092°11'0 0.0
2018-Jan-03 03:00N 29°47' W 092°11'0 0.0
2018-Jan-03 02:30N 29°47' W 092°11'0 0.0
2018-Jan-03 02:00N 29°47' W 092°11'0 0.0
2018-Jan-03 01:30N 29°47' W 092°11'0 0.0
2018-Jan-03 01:00N 29°47' W 092°11'0 0.0
2018-Jan-03 00:30N 29°47' W 092°11'3 5.6
2018-Jan-03 00:00N 29°47' W 092°08'4 8.9
2018-Jan-02 23:30N 29°49' W 092°03'3 6.0
2018-Jan-02 22:57N 29°50' W 091°59'0 0.0
2018-Jan-02 22:18N 29°50' W 091°59'0 0.0
2018-Jan-02 22:00N 29°50' W 091°59'0 0.0
2018-Jan-02 21:30N 29°50' W 091°59'0 0.0
2018-Jan-02 21:00N 29°50' W 091°59'0 0.5
2018-Jan-02 20:28N 29°50' W 091°59'0 0.1
2018-Jan-02 20:00N 29°50' W 091°59'0 0.0
2018-Jan-02 19:30N 29°50' W 091°59'2 3.5
2018-Jan-02 19:00N 29°49' W 092°01'4 8.4
2018-Jan-02 18:30N 29°48' W 092°06'2 4.6
2018-Jan-02 18:01N 29°48' W 092°08'1 2.6
2018-Jan-02 17:30N 29°49' W 092°08'0 0.0
2018-Jan-02 17:00N 29°49' W 092°08'0 0.2
2018-Jan-02 16:30N 29°49' W 092°08'0 0.0
2018-Jan-02 16:00N 29°49' W 092°08'0 0.0
2018-Jan-02 15:30N 29°49' W 092°08'0 0.0
2018-Jan-02 15:00N 29°49' W 092°08'0 0.2
2018-Jan-02 14:31N 29°49' W 092°08'0 0.2
2018-Jan-02 14:00N 29°49' W 092°08'0 0.3
2018-Jan-02 13:30N 29°49' W 092°08'0 0.1
2018-Jan-02 13:01N 29°49' W 092°08'1 2.8
2018-Jan-02 12:30N 29°48' W 092°08'2 4.4
2018-Jan-02 12:00N 29°47' W 092°10'0 0.0
2018-Jan-02 11:30N 29°47' W 092°10'1 0.0
2017-Dec-31 19:49N 29°47' W 092°11'0 0.3
2017-Dec-31 19:31N 29°47' W 092°11'0 0.0
2017-Dec-31 19:01N 29°47' W 092°11'0 0.0
2017-Dec-31 18:30N 29°47' W 092°11'0 0.0
2017-Dec-31 18:01N 29°47' W 092°11'0 0.0
2017-Dec-31 17:31N 29°47' W 092°11'0 0.0
2017-Dec-31 17:00N 29°47' W 092°11'0 0.0
2017-Dec-31 16:30N 29°47' W 092°11'0 0.0
2017-Dec-31 16:00N 29°47' W 092°11'0 0.0
2017-Dec-31 15:30N 29°47' W 092°11'0 0.0
2017-Dec-31 15:01N 29°47' W 092°11'0 0.0
2017-Dec-31 14:31N 29°47' W 092°11'0 0.0
2017-Dec-31 14:00N 29°47' W 092°11'0 0.0
2017-Dec-31 13:30N 29°47' W 092°11'0 0.0
2017-Dec-31 13:01N 29°47' W 092°11'0 0.0
2017-Dec-31 12:30N 29°47' W 092°11'0 0.0
2017-Dec-31 12:01N 29°47' W 092°11'0 0.0
2017-Dec-31 11:31N 29°47' W 092°11'  

Dump ship's entire track history